createdAt,value
2019-02-18T00:02:15.077Z,45.33
2019-02-18T00:04:43.494Z,43.47
2019-02-18T00:07:14.430Z,41.77
2019-02-18T00:09:41.994Z,45.57
2019-02-18T00:12:10.392Z,41.97
2019-02-18T00:14:38.780Z,42.80
2019-02-18T00:17:07.180Z,51.87
2019-02-18T00:19:35.636Z,45.67
2019-02-18T00:22:04.517Z,40.87
2019-02-18T00:24:32.910Z,44.17
2019-02-18T00:27:01.311Z,43.67
2019-02-18T00:29:29.776Z,45.10
2019-02-18T00:31:58.171Z,42.00
2019-02-18T00:34:26.584Z,40.87
2019-02-18T00:36:54.973Z,41.90
2019-02-18T00:39:23.368Z,42.70
2019-02-18T00:41:51.763Z,44.37
2019-02-18T00:44:20.159Z,43.87
2019-02-18T00:46:48.553Z,43.00
2019-02-18T00:49:16.950Z,41.87
2019-02-18T00:51:45.353Z,45.30
2019-02-18T00:54:13.760Z,43.43
2019-02-18T00:56:42.156Z,43.43
2019-02-18T00:59:10.546Z,39.17
2019-02-18T01:01:38.945Z,41.07
2019-02-18T01:04:07.336Z,43.77
2019-02-18T01:06:35.738Z,42.93
2019-02-18T01:09:05.312Z,42.03
2019-02-18T01:11:33.839Z,43.50
2019-02-18T01:14:02.231Z,40.30
2019-02-18T01:16:30.632Z,43.40
2019-02-18T01:18:59.021Z,43.17
2019-02-18T01:21:27.414Z,42.93
2019-02-18T01:23:55.812Z,47.00
2019-02-18T01:26:24.210Z,41.80
2019-02-18T01:28:52.647Z,45.27
2019-02-18T01:31:21.042Z,43.07
2019-02-18T01:33:49.434Z,39.07
2019-02-18T01:36:17.836Z,45.30
2019-02-18T01:38:46.229Z,41.07
2019-02-18T01:41:14.616Z,40.17
2019-02-18T01:43:43.010Z,42.17
2019-02-18T01:46:11.400Z,44.00
2019-02-18T01:48:39.798Z,40.93
2019-02-18T01:51:08.201Z,41.47
2019-02-18T01:53:36.597Z,37.03
2019-02-18T01:56:05.130Z,40.70
2019-02-18T01:58:33.525Z,43.07
2019-02-18T02:01:01.922Z,35.63
2019-02-18T02:03:30.333Z,37.30
2019-02-18T02:05:58.764Z,37.53
2019-02-18T02:08:27.163Z,36.17
2019-02-18T02:10:55.565Z,34.77
2019-02-18T02:13:31.515Z,36.00
2019-02-18T02:16:02.943Z,39.17
2019-02-18T02:18:31.378Z,37.37
2019-02-18T02:20:59.811Z,41.57
2019-02-18T02:23:28.484Z,35.83
2019-02-18T02:25:56.909Z,35.13
2019-02-18T02:28:25.425Z,34.30
2019-02-18T02:30:53.901Z,37.50
2019-02-18T02:33:22.459Z,35.57
2019-02-18T02:35:50.915Z,36.63
2019-02-18T02:38:19.317Z,35.30
2019-02-18T02:40:47.710Z,36.10
2019-02-18T02:43:16.104Z,36.63
2019-02-18T02:45:44.517Z,36.93
2019-02-18T02:48:12.990Z,33.97
2019-02-18T02:50:41.380Z,35.83
2019-02-18T02:53:09.773Z,36.27
2019-02-18T02:55:38.167Z,35.70
2019-02-18T02:58:06.565Z,31.10
2019-02-18T03:00:34.990Z,33.57
2019-02-18T03:03:03.388Z,35.47
2019-02-18T03:05:31.807Z,34.47
2019-02-18T03:08:00.214Z,34.70
2019-02-18T03:10:28.602Z,34.83
2019-02-18T03:12:56.993Z,35.10
2019-02-18T03:15:25.385Z,31.10
2019-02-18T03:17:53.802Z,33.60
2019-02-18T03:20:22.205Z,33.00
2019-02-18T03:22:50.596Z,33.20
2019-02-18T03:25:24.953Z,36.37
2019-02-18T03:27:58.999Z,32.47
2019-02-18T03:30:47.846Z,33.77
2019-02-18T03:33:19.280Z,34.80
2019-02-18T03:35:47.670Z,33.73
2019-02-18T03:38:16.069Z,32.03
2019-02-18T03:40:44.455Z,33.10
2019-02-18T03:43:12.915Z,32.17
2019-02-18T03:45:41.305Z,36.50
2019-02-18T03:48:09.712Z,31.73
2019-02-18T03:50:38.113Z,32.03
2019-02-18T03:53:06.518Z,31.17
2019-02-18T03:55:34.917Z,32.43
2019-02-18T03:58:03.328Z,31.00
2019-02-18T04:00:31.856Z,32.13
2019-02-18T04:03:00.455Z,30.47
2019-02-18T04:05:28.923Z,29.30
2019-02-18T04:07:57.326Z,29.80
2019-02-18T04:10:25.877Z,29.07
2019-02-18T04:12:54.313Z,30.63
2019-02-18T04:15:22.812Z,29.07
2019-02-18T04:17:51.193Z,27.47
2019-02-18T04:20:19.585Z,29.50
2019-02-18T04:22:47.971Z,30.07
2019-02-18T04:25:16.365Z,27.67
2019-02-18T04:27:44.758Z,32.00
2019-02-18T04:30:13.799Z,29.70
2019-02-18T04:32:42.323Z,27.60
2019-02-18T04:35:10.720Z,29.10
2019-02-18T04:37:39.114Z,27.93
2019-02-18T04:40:09.219Z,30.77
2019-02-18T04:42:37.610Z,30.23
2019-02-18T04:45:08.821Z,28.33
2019-02-18T04:47:37.198Z,29.53
2019-02-18T04:50:07.230Z,31.77
2019-02-18T04:52:35.679Z,31.23
2019-02-18T04:55:06.001Z,33.10
2019-02-18T04:57:34.416Z,31.23
2019-02-18T05:00:02.861Z,28.57
2019-02-18T05:02:31.305Z,32.23
2019-02-18T05:04:59.662Z,33.13
2019-02-18T05:07:28.074Z,34.57
2019-02-18T05:09:56.481Z,34.50
2019-02-18T05:12:24.871Z,32.90
2019-02-18T05:14:53.266Z,38.93
2019-02-18T05:17:21.658Z,31.17
2019-02-18T05:19:50.053Z,31.20
2019-02-18T05:22:18.449Z,33.43
2019-02-18T05:24:46.850Z,31.53
2019-02-18T05:27:15.273Z,36.43
2019-02-18T05:29:43.674Z,34.77
2019-02-18T05:32:12.064Z,35.67
2019-02-18T05:34:40.461Z,32.20
2019-02-18T05:37:08.859Z,34.87
2019-02-18T05:39:37.262Z,35.70
2019-02-18T05:42:05.650Z,34.70
2019-02-18T05:44:34.135Z,36.03
2019-02-18T05:47:03.466Z,30.37
2019-02-18T05:49:31.886Z,32.00
2019-02-18T05:52:00.365Z,33.63
2019-02-18T05:54:28.791Z,35.73
2019-02-18T05:56:57.260Z,32.43
2019-02-18T05:59:25.693Z,35.40
2019-02-18T06:01:54.049Z,34.60
2019-02-18T06:04:22.442Z,35.27
2019-02-18T06:06:50.843Z,35.60
2019-02-18T06:09:29.022Z,38.03
2019-02-18T06:11:49.355Z,35.50
2019-02-18T06:14:17.853Z,32.97
2019-02-18T06:16:46.941Z,34.37
2019-02-18T06:19:15.333Z,37.23
2019-02-18T06:21:43.732Z,35.77
2019-02-18T06:24:12.124Z,38.50
2019-02-18T06:26:40.521Z,38.03
2019-02-18T06:29:08.918Z,34.07
2019-02-18T06:31:37.312Z,40.38
2019-02-18T06:34:05.779Z,36.43
2019-02-18T06:36:34.166Z,38.20
2019-02-18T06:39:02.760Z,38.57
2019-02-18T06:41:32.712Z,39.20
2019-02-18T06:44:01.102Z,34.67
2019-02-18T06:46:33.825Z,38.23
2019-02-18T06:49:06.679Z,42.77
2019-02-18T06:51:35.069Z,39.23
2019-02-18T06:54:03.462Z,40.03
2019-02-18T06:56:45.579Z,36.87
2019-02-18T06:59:18.402Z,35.10
2019-02-18T07:01:54.609Z,36.33
2019-02-18T07:04:27.670Z,39.43
2019-02-18T07:07:03.606Z,37.83
2019-02-18T07:09:33.650Z,40.40
2019-02-18T07:12:18.897Z,39.87
2019-02-18T07:14:47.391Z,35.87
2019-02-18T07:17:15.804Z,41.47
2019-02-18T07:19:44.193Z,40.73
2019-02-18T07:22:12.584Z,37.20
2019-02-18T07:24:40.979Z,37.87
2019-02-18T07:27:09.381Z,40.43
2019-02-18T07:29:37.787Z,46.13
2019-02-18T07:32:06.186Z,45.50
2019-02-18T07:34:34.581Z,41.90
2019-02-18T07:37:03.086Z,41.13
2019-02-18T07:39:31.482Z,39.20
2019-02-18T07:41:59.883Z,40.00
2019-02-18T07:44:28.284Z,41.10
2019-02-18T07:46:56.674Z,36.20
2019-02-18T07:49:25.068Z,42.37
2019-02-18T07:51:53.512Z,41.60
2019-02-18T07:54:21.925Z,41.27
2019-02-18T07:56:50.317Z,35.63
2019-02-18T07:59:18.715Z,39.37
2019-02-18T08:01:47.102Z,43.93
2019-02-18T08:04:15.497Z,41.40
2019-02-18T08:06:43.895Z,35.73
2019-02-18T08:09:12.298Z,35.23
2019-02-18T08:11:40.682Z,44.30
2019-02-18T08:14:09.089Z,38.63
2019-02-18T08:16:37.469Z,38.70
2019-02-18T08:19:05.874Z,39.63
2019-02-18T08:21:34.267Z,33.27
2019-02-18T08:24:02.734Z,41.70
2019-02-18T08:26:31.135Z,43.63
2019-02-18T08:28:59.622Z,38.23
2019-02-18T08:31:28.149Z,36.10
2019-02-18T08:33:56.587Z,42.33
2019-02-18T08:36:25.149Z,35.57
2019-02-18T08:38:53.533Z,39.07
2019-02-18T08:41:21.992Z,39.40
2019-02-18T08:43:50.396Z,39.77
2019-02-18T08:46:18.788Z,38.90
2019-02-18T08:48:47.226Z,39.80
2019-02-18T08:51:15.759Z,38.40
2019-02-18T08:53:44.114Z,42.77
2019-02-18T08:56:12.508Z,37.70
2019-02-18T08:58:40.900Z,39.10
2019-02-18T09:01:09.358Z,45.60
2019-02-18T09:03:37.766Z,41.40
2019-02-18T09:06:06.216Z,42.43
2019-02-18T09:08:34.631Z,39.70
2019-02-18T09:11:03.022Z,39.03
2019-02-18T09:13:31.479Z,37.30
2019-02-18T09:16:00.599Z,39.17
2019-02-18T09:18:29.035Z,43.80
2019-02-18T09:20:57.425Z,39.17
2019-02-18T09:23:30.150Z,43.03
2019-02-18T09:25:58.622Z,37.93
2019-02-18T09:28:27.012Z,40.83
2019-02-18T09:30:55.406Z,40.40
2019-02-18T09:33:24.790Z,39.57
2019-02-18T09:35:55.618Z,43.47
2019-02-18T09:38:25.506Z,40.67
2019-02-18T09:40:53.999Z,42.13
2019-02-18T09:43:22.451Z,41.43
2019-02-18T09:45:50.855Z,47.67
2019-02-18T09:48:19.248Z,47.23
2019-02-18T09:50:47.644Z,40.30
2019-02-18T09:53:16.071Z,41.37
2019-02-18T09:55:44.468Z,42.57
2019-02-18T09:58:12.857Z,44.10
2019-02-18T10:00:41.254Z,38.40
2019-02-18T10:03:09.645Z,43.30
2019-02-18T10:05:38.042Z,43.70
2019-02-18T10:08:06.442Z,43.23
2019-02-18T10:10:34.833Z,42.30
2019-02-18T10:13:03.229Z,41.83
2019-02-18T10:15:31.627Z,39.93
2019-02-18T10:18:00.094Z,41.40
2019-02-18T10:20:28.552Z,40.00
2019-02-18T10:22:56.962Z,38.20
2019-02-18T10:25:25.385Z,42.50
2019-02-18T10:27:53.792Z,44.10
2019-02-18T10:30:22.175Z,43.97
2019-02-18T10:32:50.564Z,43.73
2019-02-18T10:35:18.977Z,40.50
2019-02-18T10:37:54.823Z,42.60
2019-02-18T10:40:17.473Z,35.27
2019-02-18T10:42:45.861Z,33.63
2019-02-18T10:45:14.276Z,33.43
2019-02-18T10:47:42.709Z,34.50
2019-02-18T10:50:12.107Z,34.07
2019-02-18T10:52:40.502Z,32.00
2019-02-18T10:55:12.379Z,29.83
2019-02-18T10:57:40.943Z,24.77
2019-02-18T11:00:12.236Z,41.57
2019-02-18T11:02:40.626Z,33.40
2019-02-18T11:05:09.281Z,32.87
2019-02-18T11:07:37.678Z,36.13
2019-02-18T11:10:09.193Z,33.77
2019-02-18T11:12:37.589Z,29.80
2019-02-18T11:15:07.936Z,31.50
2019-02-18T11:17:38.984Z,34.43
2019-02-18T11:20:08.792Z,29.70
2019-02-18T11:22:37.193Z,26.83
2019-02-18T11:25:10.839Z,27.27
2019-02-18T11:27:39.325Z,29.80
2019-02-18T11:30:18.170Z,27.93
2019-02-18T11:32:46.655Z,30.13
2019-02-18T11:35:15.182Z,29.93
2019-02-18T11:37:43.582Z,28.60
2019-02-18T11:40:16.482Z,22.70
2019-02-18T11:42:44.949Z,26.80
2019-02-18T11:45:14.690Z,25.60
2019-02-18T11:47:43.073Z,21.83
2019-02-18T11:50:13.602Z,28.73
2019-02-18T11:52:41.989Z,28.97
2019-02-18T11:55:12.218Z,27.17
2019-02-18T11:57:41.057Z,25.50
2019-02-18T12:00:16.745Z,25.73
2019-02-18T12:02:45.133Z,25.83
2019-02-18T12:05:13.892Z,28.13
2019-02-18T12:07:42.291Z,19.90
2019-02-18T12:10:12.806Z,20.13
2019-02-18T12:12:41.483Z,21.07
2019-02-18T12:15:14.631Z,29.87
2019-02-18T12:17:43.029Z,24.10
2019-02-18T12:20:15.083Z,23.03
2019-02-18T12:22:43.542Z,18.93
2019-02-18T12:25:13.068Z,16.33
2019-02-18T12:27:41.816Z,25.63
2019-02-18T12:30:16.110Z,20.70
2019-02-18T12:32:44.564Z,18.37
2019-02-18T12:35:13.593Z,22.53
2019-02-18T12:37:42.112Z,17.70
2019-02-18T12:40:12.008Z,25.80
2019-02-18T12:42:42.394Z,19.60
2019-02-18T12:45:12.086Z,20.73
2019-02-18T12:47:40.552Z,24.87
2019-02-18T12:50:11.213Z,20.77
2019-02-18T12:52:39.561Z,22.03
2019-02-18T12:55:10.216Z,22.60
2019-02-18T12:57:38.977Z,22.70
2019-02-18T13:00:15.023Z,20.17
2019-02-18T13:02:45.016Z,21.20
2019-02-18T13:05:14.108Z,23.47
2019-02-18T13:07:42.607Z,20.37
2019-02-18T13:10:11.612Z,24.37
2019-02-18T13:12:40.380Z,20.60
2019-02-18T13:15:11.587Z,18.90
2019-02-18T13:17:39.979Z,21.80
2019-02-18T13:20:08.913Z,18.93
2019-02-18T13:22:37.302Z,17.80
2019-02-18T13:25:07.137Z,21.60
2019-02-18T13:27:35.532Z,21.10
2019-02-18T13:30:07.351Z,17.17
2019-02-18T13:32:35.828Z,20.80
2019-02-18T13:35:05.588Z,24.47
2019-02-18T13:37:33.993Z,20.53
2019-02-18T13:40:02.408Z,22.47
2019-02-18T13:42:30.867Z,17.77
2019-02-18T13:44:59.537Z,17.33
2019-02-18T13:47:28.014Z,19.50
2019-02-18T13:49:56.473Z,19.70
2019-02-18T13:52:24.892Z,19.77
2019-02-18T13:54:53.280Z,16.93
2019-02-18T13:57:21.683Z,16.57
2019-02-18T13:59:50.082Z,15.43
2019-02-18T14:02:18.650Z,18.67
2019-02-18T14:04:47.058Z,21.33
2019-02-18T14:07:15.442Z,24.40
2019-02-18T14:09:43.904Z,19.13
2019-02-18T14:12:16.219Z,16.50
2019-02-18T14:14:42.567Z,17.73
2019-02-18T14:17:11.352Z,16.70
2019-02-18T14:19:39.734Z,16.40
2019-02-18T14:22:08.473Z,18.60
2019-02-18T14:24:36.868Z,18.97
2019-02-18T14:27:05.325Z,16.03
2019-02-18T14:29:33.730Z,17.80
2019-02-18T14:32:02.161Z,18.40
2019-02-18T14:34:30.536Z,17.17
2019-02-18T14:36:58.929Z,19.60
2019-02-18T14:39:27.331Z,17.50
2019-02-18T14:41:55.721Z,20.87
2019-02-18T14:44:24.149Z,18.87
2019-02-18T14:46:52.614Z,20.13
2019-02-18T14:49:21.269Z,15.90
2019-02-18T14:51:49.702Z,14.43
2019-02-18T14:54:18.257Z,14.73
2019-02-18T14:56:46.636Z,15.87
2019-02-18T14:59:15.022Z,15.93
2019-02-18T15:01:43.580Z,16.17
2019-02-18T15:04:11.971Z,15.97
2019-02-18T15:06:40.359Z,16.93
2019-02-18T15:09:08.807Z,16.20
2019-02-18T15:11:37.466Z,20.23
2019-02-18T15:14:05.918Z,16.10
2019-02-18T15:16:34.313Z,15.97
2019-02-18T15:19:02.769Z,17.63
2019-02-18T15:21:31.354Z,16.00
2019-02-18T15:23:59.748Z,18.53
2019-02-18T15:26:28.137Z,21.10
2019-02-18T15:28:56.545Z,23.03
2019-02-18T15:31:25.833Z,23.13
2019-02-18T15:33:54.296Z,22.83
2019-02-18T15:36:23.139Z,23.40
2019-02-18T15:38:51.525Z,29.13
2019-02-18T15:41:19.923Z,28.93
2019-02-18T15:43:48.311Z,26.07
2019-02-18T15:46:17.722Z,32.13
2019-02-18T15:48:46.125Z,29.40
2019-02-18T15:51:14.584Z,23.33
2019-02-18T15:53:42.989Z,22.67
2019-02-18T15:56:11.377Z,20.23
2019-02-18T15:58:39.772Z,20.97
2019-02-18T16:01:08.169Z,24.53
2019-02-18T16:03:36.567Z,30.50
2019-02-18T16:06:04.962Z,27.70
2019-02-18T16:08:33.653Z,26.33
2019-02-18T16:11:02.048Z,23.50
2019-02-18T16:13:30.506Z,21.27
2019-02-18T16:15:58.895Z,22.83
2019-02-18T16:18:27.292Z,22.80
2019-02-18T16:20:55.686Z,22.83
2019-02-18T16:23:24.080Z,25.30
2019-02-18T16:25:52.470Z,28.70
2019-02-18T16:28:20.855Z,24.60
2019-02-18T16:30:49.244Z,29.17
2019-02-18T16:33:17.638Z,23.27
2019-02-18T16:35:46.039Z,26.70
2019-02-18T16:38:14.453Z,21.17
2019-02-18T16:40:42.855Z,25.07
2019-02-18T16:43:11.248Z,30.23
2019-02-18T16:45:39.652Z,25.90
2019-02-18T16:48:08.421Z,23.33
2019-02-18T16:50:36.864Z,21.33
2019-02-18T16:53:05.346Z,28.30
2019-02-18T16:55:34.236Z,18.97
2019-02-18T16:58:02.628Z,20.23
2019-02-18T17:00:32.667Z,20.13
2019-02-18T17:03:01.136Z,21.90
2019-02-18T17:05:29.545Z,29.30
2019-02-18T17:07:58.004Z,22.13
2019-02-18T17:10:26.672Z,25.33
2019-02-18T17:12:55.074Z,32.77
2019-02-18T17:15:23.484Z,29.97
2019-02-18T17:17:51.872Z,28.23
2019-02-18T17:20:20.283Z,41.80
2019-02-18T17:22:48.671Z,29.87
2019-02-18T17:25:17.138Z,31.80
2019-02-18T17:27:45.824Z,29.57
2019-02-18T17:30:15.657Z,28.53
2019-02-18T17:32:44.050Z,28.73
2019-02-18T17:35:15.774Z,25.13
2019-02-18T17:37:44.171Z,25.67
2019-02-18T17:40:13.816Z,27.87
2019-02-18T17:42:42.585Z,22.00
2019-02-18T17:45:13.463Z,26.47
2019-02-18T17:47:41.877Z,27.00
2019-02-18T17:50:12.624Z,24.07
2019-02-18T17:52:41.023Z,30.17
2019-02-18T17:55:11.991Z,27.00
2019-02-18T17:57:40.661Z,26.53
2019-02-18T18:00:14.874Z,37.87
2019-02-18T18:02:43.264Z,34.50
2019-02-18T18:05:11.796Z,32.07
2019-02-18T18:07:40.243Z,26.80
2019-02-18T18:10:13.473Z,24.93
2019-02-18T18:12:42.103Z,47.37
2019-02-18T18:15:12.200Z,41.00
2019-02-18T18:17:40.600Z,37.87
2019-02-18T18:20:13.058Z,39.00
2019-02-18T18:22:41.518Z,31.27
2019-02-18T18:25:11.924Z,36.90
2019-02-18T18:27:40.393Z,40.67
2019-02-18T18:30:17.303Z,36.57
2019-02-18T18:32:45.693Z,32.73
2019-02-18T18:35:14.354Z,40.93
2019-02-18T18:37:42.734Z,43.40
2019-02-18T18:40:15.791Z,55.53
2019-02-18T18:42:44.203Z,45.97
2019-02-18T18:45:15.702Z,51.10
2019-02-18T18:47:44.238Z,51.83
2019-02-18T18:50:23.192Z,47.97
2019-02-18T18:52:51.586Z,45.80
2019-02-18T18:55:19.980Z,40.23
2019-02-18T18:57:48.443Z,35.67
2019-02-18T19:00:23.696Z,37.80
2019-02-18T19:02:52.162Z,37.00
2019-02-18T19:05:20.815Z,34.50
2019-02-18T19:07:49.208Z,33.77
2019-02-18T19:10:17.662Z,27.97
2019-02-18T19:12:46.056Z,48.73
2019-02-18T19:15:15.606Z,39.10
2019-02-18T19:17:44.010Z,39.80
2019-02-18T19:20:13.155Z,63.43
2019-02-18T19:22:42.549Z,95.20
2019-02-18T19:25:12.477Z,186.23
2019-02-18T19:27:40.871Z,165.87
2019-02-18T19:30:14.787Z,183.10
2019-02-18T19:32:44.094Z,172.30
2019-02-18T19:35:12.491Z,148.07
2019-02-18T19:37:40.894Z,122.77
2019-02-18T19:40:11.749Z,63.37
2019-02-18T19:42:41.081Z,49.57
2019-02-18T19:45:12.710Z,43.23
2019-02-18T19:47:41.411Z,39.47
2019-02-18T19:50:09.918Z,37.17
2019-02-18T19:52:38.331Z,35.30
2019-02-18T19:55:09.218Z,30.40
2019-02-18T19:57:37.669Z,36.80
2019-02-18T20:00:17.487Z,32.73
2019-02-18T20:02:45.942Z,34.57
2019-02-18T20:05:14.567Z,31.73
2019-02-18T20:07:44.279Z,33.30
2019-02-18T20:10:13.394Z,35.37
2019-02-18T20:12:41.801Z,31.60
2019-02-18T20:15:13.132Z,31.93
2019-02-18T20:17:41.524Z,29.27
2019-02-18T20:20:12.515Z,32.77
2019-02-18T20:22:40.912Z,32.83
2019-02-18T20:25:09.845Z,33.47
2019-02-18T20:27:38.303Z,32.10
2019-02-18T20:30:12.340Z,28.80
2019-02-18T20:32:40.746Z,35.07
2019-02-18T20:35:10.576Z,32.00
2019-02-18T20:37:39.944Z,32.40
2019-02-18T20:40:09.708Z,28.90
2019-02-18T20:42:38.586Z,34.40
2019-02-18T20:45:11.662Z,32.97
2019-02-18T20:47:42.058Z,31.40
2019-02-18T20:50:12.022Z,35.00
2019-02-18T20:52:40.548Z,31.77
2019-02-18T20:55:11.296Z,35.07
2019-02-18T20:57:39.684Z,31.07
2019-02-18T21:00:12.535Z,35.90
2019-02-18T21:02:40.999Z,38.60
2019-02-18T21:05:09.476Z,35.67
2019-02-18T21:07:37.868Z,39.57
2019-02-18T21:10:11.757Z,36.80
2019-02-18T21:12:40.207Z,35.50
2019-02-18T21:15:09.250Z,35.13
2019-02-18T21:17:37.643Z,36.17
2019-02-18T21:20:08.499Z,45.10
2019-02-18T21:22:37.749Z,39.00
2019-02-18T21:25:08.375Z,38.57
2019-02-18T21:27:36.783Z,42.33
2019-02-18T21:30:08.245Z,34.63
2019-02-18T21:32:36.685Z,40.57
2019-02-18T21:35:06.467Z,29.50
2019-02-18T21:37:34.866Z,31.90
2019-02-18T21:40:04.267Z,32.53
2019-02-18T21:42:33.623Z,39.00
2019-02-18T21:45:02.038Z,40.20
2019-02-18T21:47:30.442Z,42.03
2019-02-18T21:49:58.841Z,46.50
2019-02-18T21:52:27.243Z,45.60
2019-02-18T21:54:56.013Z,45.17
2019-02-18T21:57:24.429Z,44.07
2019-02-18T21:59:52.830Z,40.67
2019-02-18T22:02:21.233Z,40.70
2019-02-18T22:04:49.690Z,37.00
2019-02-18T22:07:18.083Z,41.87
2019-02-18T22:09:46.478Z,39.00
2019-02-18T22:12:14.876Z,44.93
2019-02-18T22:14:43.258Z,40.60
2019-02-18T22:17:11.657Z,38.93
2019-02-18T22:19:40.055Z,40.43
2019-02-18T22:22:08.458Z,36.67
2019-02-18T22:24:36.853Z,37.23
2019-02-18T22:27:05.353Z,38.53
2019-02-18T22:29:33.739Z,41.20
2019-02-18T22:32:02.128Z,42.33
2019-02-18T22:34:30.541Z,35.73
2019-02-18T22:36:58.909Z,40.27
2019-02-18T22:39:27.298Z,40.10
2019-02-18T22:41:55.687Z,38.00
2019-02-18T22:44:24.077Z,43.33
2019-02-18T22:46:52.468Z,41.57
2019-02-18T22:49:20.866Z,40.60
2019-02-18T22:51:49.262Z,40.70
2019-02-18T22:54:17.644Z,40.77
2019-02-18T22:56:46.105Z,41.47
2019-02-18T22:59:14.505Z,37.83
2019-02-18T23:01:42.900Z,37.07
2019-02-18T23:04:11.298Z,42.33
2019-02-18T23:06:39.709Z,38.27
2019-02-18T23:09:09.796Z,45.43
2019-02-18T23:11:38.196Z,41.90
2019-02-18T23:14:07.262Z,38.07
2019-02-18T23:16:35.654Z,42.60
2019-02-18T23:19:04.426Z,43.37
2019-02-18T23:21:32.829Z,43.77
2019-02-18T23:24:01.227Z,39.83
2019-02-18T23:26:29.636Z,36.40
2019-02-18T23:28:58.029Z,42.67
2019-02-18T23:31:26.428Z,40.27
2019-02-18T23:33:54.824Z,39.63
2019-02-18T23:36:23.408Z,36.50
2019-02-18T23:38:51.811Z,36.27
2019-02-18T23:41:20.206Z,39.17
2019-02-18T23:43:48.601Z,37.57
2019-02-18T23:46:16.995Z,32.97
2019-02-18T23:48:45.393Z,37.43
2019-02-18T23:51:13.834Z,37.53
2019-02-18T23:53:42.179Z,40.90
2019-02-18T23:56:10.568Z,40.07
2019-02-18T23:58:38.973Z,35.87
